createdAt,value
2018-05-27T00:00:20.544Z,102387.36
2018-05-27T00:02:47.013Z,102394.04
2018-05-27T00:05:13.123Z,102392.31
2018-05-27T00:07:39.541Z,102389.70
2018-05-27T00:10:05.691Z,102383.09
2018-05-27T00:12:31.788Z,102388.44
2018-05-27T00:14:57.973Z,102390.25
2018-05-27T00:17:24.480Z,102393.27
2018-05-27T00:19:50.576Z,102398.22
2018-05-27T00:22:16.681Z,102398.63
2018-05-27T00:24:42.916Z,102396.45
2018-05-27T00:27:09.024Z,102403.56
2018-05-27T00:29:35.117Z,102400.02
2018-05-27T00:32:01.244Z,102399.11
2018-05-27T00:34:27.332Z,102397.45
2018-05-27T00:36:53.462Z,102390.45
2018-05-27T00:39:19.557Z,102393.98
2018-05-27T00:41:45.724Z,102396.20
2018-05-27T00:44:11.833Z,102390.05
2018-05-27T00:46:37.920Z,102389.13
2018-05-27T00:49:04.080Z,102391.81
2018-05-27T00:51:30.174Z,102390.05
2018-05-27T00:53:59.298Z,102390.53
2018-05-27T00:56:25.564Z,102394.07
2018-05-27T00:58:51.660Z,102390.97
2018-05-27T01:01:17.783Z,102383.89
2018-05-27T01:03:43.904Z,102385.26
2018-05-27T01:06:10.341Z,102386.58
2018-05-27T01:08:37.082Z,102381.28
2018-05-27T01:11:03.192Z,102376.05
2018-05-27T01:13:29.288Z,102381.80
2018-05-27T01:15:55.455Z,102388.39
2018-05-27T01:18:21.563Z,102382.80
2018-05-27T01:20:47.692Z,102378.89
2018-05-27T01:23:13.910Z,102386.41
2018-05-27T01:25:40.030Z,102385.19
2018-05-27T01:28:06.154Z,102383.02
2018-05-27T01:30:32.626Z,102376.42
2018-05-27T01:32:59.056Z,102376.39
2018-05-27T01:35:25.153Z,102372.84
2018-05-27T01:37:51.283Z,102371.97
2018-05-27T01:40:17.416Z,102371.08
2018-05-27T01:42:43.509Z,102373.37
2018-05-27T01:45:09.642Z,102373.77
2018-05-27T01:47:35.740Z,102362.31
2018-05-27T01:50:01.878Z,102356.64
2018-05-27T01:52:28.266Z,102349.05
2018-05-27T01:54:54.697Z,102347.72
2018-05-27T01:57:20.812Z,102334.94
2018-05-27T01:59:47.153Z,102337.59
2018-05-27T02:02:13.280Z,102334.53
2018-05-27T02:04:39.437Z,102334.53
2018-05-27T02:07:05.532Z,102343.38
2018-05-27T02:09:31.629Z,102334.97
2018-05-27T02:11:57.883Z,102336.38
2018-05-27T02:14:23.994Z,102328.42
2018-05-27T02:16:50.121Z,102328.86
2018-05-27T02:19:16.278Z,102325.77
2018-05-27T02:21:42.388Z,102324.44
2018-05-27T02:24:08.821Z,102328.86
2018-05-27T02:26:34.987Z,102325.32
2018-05-27T02:29:01.091Z,102329.34
2018-05-27T02:31:27.333Z,102319.66
2018-05-27T02:33:53.438Z,102312.62
2018-05-27T02:36:19.537Z,102307.31
2018-05-27T02:38:45.661Z,102307.79
2018-05-27T02:41:11.797Z,102303.81
2018-05-27T02:43:37.924Z,102299.88
2018-05-27T02:46:04.497Z,102304.73
2018-05-27T02:48:30.601Z,102307.83
2018-05-27T02:50:56.941Z,102304.33
2018-05-27T02:53:23.098Z,102303.97
2018-05-27T02:55:49.476Z,102308.79
2018-05-27T02:58:15.915Z,102305.29
2018-05-27T03:00:42.037Z,102304.85
2018-05-27T03:03:08.157Z,102299.59
2018-05-27T03:05:34.263Z,102298.70
2018-05-27T03:08:00.494Z,102301.83
2018-05-27T03:10:26.603Z,102299.18
2018-05-27T03:12:52.737Z,102300.06
2018-05-27T03:15:18.824Z,102297.41
2018-05-27T03:17:44.973Z,102294.84
2018-05-27T03:20:11.097Z,102304.20
2018-05-27T03:22:37.196Z,102306.08
2018-05-27T03:25:03.600Z,102300.37
2018-05-27T03:27:29.849Z,102303.42
2018-05-27T03:29:55.942Z,102302.95
2018-05-27T03:32:22.043Z,102302.98
2018-05-27T03:34:48.278Z,102300.29
2018-05-27T03:37:14.387Z,102305.16
2018-05-27T03:39:40.477Z,102306.11
2018-05-27T03:42:06.615Z,102311.78
2018-05-27T03:44:32.737Z,102313.07
2018-05-27T03:46:58.873Z,102313.95
2018-05-27T03:49:25.021Z,102317.05
2018-05-27T03:51:51.121Z,102322.35
2018-05-27T03:54:17.250Z,102315.65
2018-05-27T03:56:43.466Z,102315.61
2018-05-27T03:59:09.584Z,102316.05
2018-05-27T04:01:36.002Z,102315.17
2018-05-27T04:04:14.383Z,102318.70
2018-05-27T04:06:52.713Z,102326.59
2018-05-27T04:09:18.844Z,102321.32
2018-05-27T04:11:44.971Z,102314.28
2018-05-27T04:14:11.111Z,102309.79
2018-05-27T04:16:37.213Z,102304.00
2018-05-27T04:19:03.312Z,102305.29
2018-05-27T04:21:29.524Z,102309.67
2018-05-27T04:23:56.322Z,102307.83
2018-05-27T04:26:22.426Z,102309.16
2018-05-27T04:28:48.521Z,102319.77
2018-05-27T04:31:15.011Z,102322.90
2018-05-27T04:33:41.645Z,102323.38
2018-05-27T04:36:07.743Z,102321.20
2018-05-27T04:38:33.896Z,102317.27
2018-05-27T04:41:00.224Z,102306.22
2018-05-27T04:43:26.661Z,102305.84
2018-05-27T04:45:52.830Z,102303.60
2018-05-27T04:48:19.110Z,102304.52
2018-05-27T04:50:45.223Z,102301.47
2018-05-27T04:53:11.776Z,102297.41
2018-05-27T04:55:38.208Z,102300.50
2018-05-27T04:58:04.304Z,102300.50
2018-05-27T05:00:30.445Z,102306.25
2018-05-27T05:02:56.574Z,102313.80
2018-05-27T05:05:23.022Z,102322.68
2018-05-27T05:07:49.125Z,102323.16
2018-05-27T05:10:15.233Z,102325.78
2018-05-27T05:12:41.464Z,102318.27
2018-05-27T05:15:07.576Z,102320.88
2018-05-27T05:17:33.669Z,102321.28
2018-05-27T05:20:00.508Z,102321.39
2018-05-27T05:22:26.703Z,102322.39
2018-05-27T05:24:53.055Z,102316.20
2018-05-27T05:27:19.192Z,102324.09
2018-05-27T05:29:45.435Z,102324.48
2018-05-27T05:32:11.541Z,102323.61
2018-05-27T05:34:37.637Z,102328.43
2018-05-27T05:37:04.090Z,102333.29
2018-05-27T05:39:30.188Z,102339.52
2018-05-27T05:41:56.323Z,102337.34
2018-05-27T05:44:22.428Z,102337.75
2018-05-27T05:46:48.818Z,102332.00
2018-05-27T05:49:14.972Z,102331.13
2018-05-27T05:51:41.087Z,102337.38
2018-05-27T05:54:07.223Z,102335.17
2018-05-27T05:56:33.359Z,102336.50
2018-05-27T05:58:59.530Z,102339.55
2018-05-27T06:01:25.766Z,102334.69
2018-05-27T06:03:51.867Z,102339.11
2018-05-27T06:06:17.969Z,102335.98
2018-05-27T06:08:44.345Z,102339.08
2018-05-27T06:11:10.445Z,102335.47
2018-05-27T06:13:36.575Z,102326.59
2018-05-27T06:16:02.683Z,102326.55
2018-05-27T06:18:29.180Z,102319.84
2018-05-27T06:20:55.277Z,102322.86
2018-05-27T06:23:21.451Z,102327.25
2018-05-27T06:25:47.633Z,102324.16
2018-05-27T06:28:13.717Z,102329.05
2018-05-27T06:30:39.850Z,102335.16
2018-05-27T06:33:06.213Z,102339.07
2018-05-27T06:35:32.353Z,102334.20
2018-05-27T06:37:58.768Z,102342.13
2018-05-27T06:40:24.973Z,102341.64
2018-05-27T06:42:51.069Z,102334.94
2018-05-27T06:45:17.171Z,102334.45
2018-05-27T06:47:43.335Z,102338.44
2018-05-27T06:50:09.470Z,102341.02
2018-05-27T06:52:36.031Z,102345.39
2018-05-27T06:55:02.125Z,102340.05
2018-05-27T06:57:28.309Z,102338.20
2018-05-27T06:59:54.716Z,102341.66
2018-05-27T07:02:21.031Z,102343.84
2018-05-27T07:04:47.227Z,102338.56
2018-05-27T07:07:13.310Z,102338.13
2018-05-27T07:09:39.408Z,102336.36
2018-05-27T07:12:06.166Z,102335.88
2018-05-27T07:14:32.608Z,102343.77
2018-05-27T07:16:58.698Z,102342.80
2018-05-27T07:19:25.188Z,102337.86
2018-05-27T07:21:51.312Z,102336.44
2018-05-27T07:24:17.445Z,102330.94
2018-05-27T07:26:43.841Z,102331.25
2018-05-27T07:29:09.974Z,102334.27
2018-05-27T07:31:36.501Z,102328.87
2018-05-27T07:34:02.616Z,102328.80
2018-05-27T07:36:28.968Z,102322.92
2018-05-27T07:38:55.093Z,102323.20
2018-05-27T07:41:21.198Z,102333.17
2018-05-27T07:43:47.440Z,102332.61
2018-05-27T07:46:20.585Z,102332.44
2018-05-27T07:48:46.833Z,102335.49
2018-05-27T07:51:12.969Z,102335.89
2018-05-27T07:53:39.130Z,102330.09
2018-05-27T07:56:05.277Z,102330.41
2018-05-27T07:58:31.468Z,102333.87
2018-05-27T08:00:57.897Z,102327.31
2018-05-27T08:03:23.989Z,102326.56
2018-05-27T08:05:50.095Z,102330.14
2018-05-27T08:08:16.341Z,102326.55
2018-05-27T08:10:42.437Z,102332.75
2018-05-27T08:13:09.441Z,102331.06
2018-05-27T08:15:35.568Z,102328.98
2018-05-27T08:18:01.664Z,102327.78
2018-05-27T08:20:27.805Z,102330.47
2018-05-27T08:22:54.260Z,102330.88
2018-05-27T08:25:20.792Z,102332.96
2018-05-27T08:27:47.225Z,102337.67
2018-05-27T08:30:13.331Z,102338.42
2018-05-27T08:32:39.780Z,102334.84
2018-05-27T08:35:05.957Z,102333.91
2018-05-27T08:37:32.393Z,102337.94
2018-05-27T08:39:58.501Z,102342.33
2018-05-27T08:42:24.649Z,102337.98
2018-05-27T08:44:50.775Z,102335.81
2018-05-27T08:47:16.880Z,102330.98
2018-05-27T08:49:43.446Z,102335.89
2018-05-27T08:52:09.555Z,102338.52
2018-05-27T08:54:35.675Z,102331.91
2018-05-27T08:57:01.837Z,102332.71
2018-05-27T08:59:27.929Z,102336.61
2018-05-27T09:01:54.317Z,102336.92
2018-05-27T09:04:20.788Z,102344.33
2018-05-27T09:06:47.171Z,102333.16
2018-05-27T09:09:13.264Z,102332.23
2018-05-27T09:11:40.154Z,102326.09
2018-05-27T09:14:06.580Z,102320.38
2018-05-27T09:16:32.921Z,102317.77
2018-05-27T09:18:59.763Z,102322.72
2018-05-27T09:21:25.875Z,102321.83
2018-05-27T09:23:51.981Z,102332.50
2018-05-27T09:26:18.160Z,102337.37
2018-05-27T09:28:44.353Z,102320.14
2018-05-27T09:31:10.801Z,102324.05
2018-05-27T09:33:36.957Z,102324.04
2018-05-27T09:36:03.074Z,102321.34
2018-05-27T09:38:29.889Z,102318.69
2018-05-27T09:40:55.999Z,102317.36
2018-05-27T09:43:22.104Z,102319.53
2018-05-27T09:45:48.229Z,102318.64
2018-05-27T09:48:14.407Z,102312.00
2018-05-27T09:50:40.509Z,102304.48
2018-05-27T09:53:06.612Z,102307.09
2018-05-27T09:55:33.072Z,102305.36
2018-05-27T09:57:59.226Z,102301.77
2018-05-27T10:00:25.325Z,102302.17
2018-05-27T10:02:51.434Z,102292.00
2018-05-27T10:05:17.577Z,102289.33
2018-05-27T10:07:43.688Z,102290.17
2018-05-27T10:10:09.932Z,102282.64
2018-05-27T10:12:36.040Z,102280.83
2018-05-27T10:15:02.526Z,102284.31
2018-05-27T10:17:28.661Z,102284.23
2018-05-27T10:19:54.869Z,102276.17
2018-05-27T10:22:21.279Z,102278.30
2018-05-27T10:24:47.515Z,102274.27
2018-05-27T10:27:13.633Z,102271.52
2018-05-27T10:29:39.732Z,102277.67
2018-05-27T10:32:05.836Z,102274.52
2018-05-27T10:34:32.313Z,102273.55
2018-05-27T10:36:58.749Z,102268.23
2018-05-27T10:39:25.326Z,102272.17
2018-05-27T10:41:51.438Z,102267.70
2018-05-27T10:44:17.773Z,102275.62
2018-05-27T10:46:43.900Z,102265.84
2018-05-27T10:49:10.040Z,102269.38
2018-05-27T10:51:36.140Z,102260.03
2018-05-27T10:54:02.449Z,102258.20
2018-05-27T10:56:28.554Z,102247.05
2018-05-27T10:58:54.653Z,102246.56
2018-05-27T11:01:20.784Z,102248.72
2018-05-27T11:03:46.888Z,102246.46
2018-05-27T11:06:13.415Z,102243.71
2018-05-27T11:08:39.753Z,102243.71
2018-05-27T11:11:05.844Z,102241.41
2018-05-27T11:13:32.030Z,102240.02
2018-05-27T11:15:58.400Z,102238.20
2018-05-27T11:18:24.729Z,102238.11
2018-05-27T11:20:51.202Z,102228.76
2018-05-27T11:23:17.308Z,102224.72
2018-05-27T11:25:43.417Z,102230.88
2018-05-27T11:28:09.586Z,102228.12
2018-05-27T11:30:35.697Z,102221.86
2018-05-27T11:33:01.804Z,102218.72
2018-05-27T11:35:27.926Z,102218.18
2018-05-27T11:37:54.557Z,102205.72
2018-05-27T11:40:20.653Z,102211.83
2018-05-27T11:42:46.746Z,102207.83
2018-05-27T11:45:12.864Z,102199.80
2018-05-27T11:47:38.979Z,102195.75
2018-05-27T11:50:05.145Z,102195.66
2018-05-27T11:52:31.261Z,102190.29
2018-05-27T11:54:57.638Z,102183.09
2018-05-27T11:57:23.909Z,102183.44
2018-05-27T11:59:50.379Z,102175.41
2018-05-27T12:02:16.494Z,102176.20
2018-05-27T12:04:42.585Z,102177.47
2018-05-27T12:07:08.755Z,102167.22
2018-05-27T12:09:35.014Z,102165.80
2018-05-27T12:12:01.068Z,102167.95
2018-05-27T12:14:27.237Z,102159.87
2018-05-27T12:16:53.588Z,102164.20
2018-05-27T12:19:19.952Z,102152.12
2018-05-27T12:21:46.354Z,102152.91
2018-05-27T12:24:12.518Z,102147.93
2018-05-27T12:26:38.913Z,102142.55
2018-05-27T12:29:05.051Z,102138.45
2018-05-27T12:31:31.574Z,102134.80
2018-05-27T12:33:57.664Z,102136.02
2018-05-27T12:36:23.745Z,102133.75
2018-05-27T12:38:49.893Z,102129.22
2018-05-27T12:41:16.016Z,102123.84
2018-05-27T12:43:42.414Z,102122.89
2018-05-27T12:46:08.501Z,102124.55
2018-05-27T12:48:34.637Z,102126.66
2018-05-27T12:51:00.794Z,102122.17
2018-05-27T12:53:26.907Z,102116.31
2018-05-27T12:55:53.009Z,102116.23
2018-05-27T12:58:19.166Z,102121.93
2018-05-27T13:00:45.270Z,102116.11
2018-05-27T13:03:11.398Z,102118.19
2018-05-27T13:05:37.844Z,102112.34
2018-05-27T13:08:03.956Z,102114.91
2018-05-27T13:10:30.054Z,102116.12
2018-05-27T13:12:56.192Z,102114.73
2018-05-27T13:15:22.655Z,102109.73
2018-05-27T13:17:48.758Z,102111.41
2018-05-27T13:20:14.862Z,102104.25
2018-05-27T13:22:41.030Z,102101.03
2018-05-27T13:25:07.464Z,102096.53
2018-05-27T13:27:33.559Z,102089.33
2018-05-27T13:29:59.714Z,102080.84
2018-05-27T13:32:25.845Z,102081.66
2018-05-27T13:34:51.940Z,102075.33
2018-05-27T13:37:18.087Z,102073.05
2018-05-27T13:39:44.226Z,102072.50
2018-05-27T13:42:10.585Z,102073.22
2018-05-27T13:44:36.714Z,102076.66
2018-05-27T13:47:02.842Z,102072.98
2018-05-27T13:49:28.941Z,102066.66
2018-05-27T13:51:55.670Z,102065.27
2018-05-27T13:54:21.778Z,102070.52
2018-05-27T13:56:47.881Z,102059.74
2018-05-27T13:59:14.062Z,102065.35
2018-05-27T14:01:40.173Z,102065.66
2018-05-27T14:04:06.632Z,102066.24
2018-05-27T14:06:32.729Z,102060.28
2018-05-27T14:08:59.162Z,102064.28
2018-05-27T14:11:25.320Z,102066.55
2018-05-27T14:13:51.457Z,102055.41
2018-05-27T14:16:17.901Z,102053.49
2018-05-27T14:18:44.020Z,102058.65
2018-05-27T14:21:10.126Z,102053.59
2018-05-27T14:23:36.347Z,102054.24
2018-05-27T14:26:02.760Z,102061.98
2018-05-27T14:28:28.907Z,102064.73
2018-05-27T14:30:55.093Z,102056.73
2018-05-27T14:33:21.316Z,102057.34
2018-05-27T14:35:47.414Z,102061.80
2018-05-27T14:38:13.515Z,102058.59
2018-05-27T14:40:39.681Z,102053.41
2018-05-27T14:43:05.789Z,102055.73
2018-05-27T14:45:31.876Z,102059.59
2018-05-27T14:47:58.257Z,102061.77
2018-05-27T14:50:24.630Z,102062.72
2018-05-27T14:52:50.743Z,102067.41
2018-05-27T14:55:16.869Z,102072.59
2018-05-27T14:57:43.135Z,102057.50
2018-05-27T15:00:09.243Z,102065.19
2018-05-27T15:02:35.350Z,102057.09
2018-05-27T15:05:01.543Z,102057.80
2018-05-27T15:07:27.636Z,102047.84
2018-05-27T15:09:53.745Z,102051.36
2018-05-27T15:12:19.867Z,102048.72
2018-05-27T15:14:45.992Z,102044.48
2018-05-27T15:17:12.833Z,102047.87
2018-05-27T15:19:38.943Z,102035.55
2018-05-27T15:22:05.045Z,102030.72
2018-05-27T15:24:31.193Z,102030.36
2018-05-27T15:26:57.421Z,102037.41
2018-05-27T15:29:23.534Z,102027.05
2018-05-27T15:31:49.788Z,102031.24
2018-05-27T15:34:15.889Z,102036.26
2018-05-27T15:36:42.002Z,102028.39
2018-05-27T15:39:08.137Z,102028.53
2018-05-27T15:41:34.498Z,102028.14
2018-05-27T15:44:00.705Z,102021.98
2018-05-27T15:46:26.817Z,102022.61
2018-05-27T15:48:52.954Z,102024.91
2018-05-27T15:51:19.055Z,102021.81
2018-05-27T15:53:45.175Z,102018.11
2018-05-27T15:56:11.420Z,102018.17
2018-05-27T15:58:37.781Z,102016.33
2018-05-27T16:01:04.221Z,102017.23
2018-05-27T16:03:30.795Z,102015.67
2018-05-27T16:05:56.898Z,102012.64
2018-05-27T16:08:23.014Z,102005.73
2018-05-27T16:10:49.154Z,102015.86
2018-05-27T16:13:15.572Z,102016.05
2018-05-27T16:15:41.701Z,102020.84
2018-05-27T16:18:07.919Z,102018.11
2018-05-27T16:20:34.085Z,102014.06
2018-05-27T16:23:00.542Z,102014.88
2018-05-27T16:25:26.909Z,102017.79
2018-05-27T16:27:53.073Z,102020.77
2018-05-27T16:30:19.173Z,102014.81
2018-05-27T16:32:45.286Z,102013.35
2018-05-27T16:35:11.418Z,102015.97
2018-05-27T16:37:37.522Z,102020.72
2018-05-27T16:40:03.934Z,102020.99
2018-05-27T16:42:30.043Z,102012.28
2018-05-27T16:44:56.149Z,102011.57
2018-05-27T16:47:22.368Z,102009.17
2018-05-27T16:49:48.487Z,102004.64
2018-05-27T16:52:15.009Z,102001.46
2018-05-27T16:54:41.104Z,101993.61
2018-05-27T16:57:07.297Z,101989.95
2018-05-27T16:59:33.940Z,101989.95
2018-05-27T17:02:00.056Z,101992.08
2018-05-27T17:04:26.193Z,101983.89
2018-05-27T17:06:52.339Z,101984.97
2018-05-27T17:09:19.345Z,101976.64
2018-05-27T17:11:45.486Z,101979.81
2018-05-27T17:14:11.931Z,101973.62
2018-05-27T17:16:38.046Z,101965.55
2018-05-27T17:19:04.264Z,101972.93
2018-05-27T17:21:30.503Z,101971.77
2018-05-27T17:23:56.614Z,101963.02
2018-05-27T17:26:22.728Z,101962.73
2018-05-27T17:28:49.297Z,101958.73
2018-05-27T17:31:15.415Z,101958.27
2018-05-27T17:33:41.519Z,101957.24
2018-05-27T17:36:07.629Z,101953.47
2018-05-27T17:38:33.769Z,101961.17
2018-05-27T17:41:00.191Z,101956.89
2018-05-27T17:43:26.469Z,101960.08
2018-05-27T17:45:52.565Z,101964.69
2018-05-27T17:48:18.679Z,101962.09
2018-05-27T17:50:45.102Z,101966.24
2018-05-27T17:53:11.228Z,101968.13
2018-05-27T17:55:37.393Z,101962.41
2018-05-27T17:58:03.485Z,101967.91
2018-05-27T18:00:30.119Z,101962.80
2018-05-27T18:02:56.234Z,101968.41
2018-05-27T18:05:22.355Z,101971.39
2018-05-27T18:07:48.490Z,101979.17
2018-05-27T18:10:14.627Z,101978.89
2018-05-27T18:12:40.900Z,101975.53
2018-05-27T18:15:06.992Z,101976.64
2018-05-27T18:17:33.099Z,101983.47
2018-05-27T18:19:59.651Z,101987.97
2018-05-27T18:22:25.764Z,101994.30
2018-05-27T18:24:51.874Z,101993.55
2018-05-27T18:27:18.060Z,101998.23
2018-05-27T18:29:44.164Z,101997.48
2018-05-27T18:32:10.331Z,101995.02
2018-05-27T18:34:36.431Z,102001.92
2018-05-27T18:37:02.570Z,101994.95
2018-05-27T18:39:28.705Z,101993.37
2018-05-27T18:41:54.852Z,101993.64
2018-05-27T18:44:21.090Z,101994.36
2018-05-27T18:46:47.200Z,101998.59
2018-05-27T18:49:13.309Z,101994.02
2018-05-27T18:51:39.801Z,102000.98
2018-05-27T18:54:05.918Z,101999.92
2018-05-27T18:56:32.337Z,101995.42
2018-05-27T18:58:58.504Z,101993.92
2018-05-27T19:01:25.709Z,101995.93
2018-05-27T19:03:51.811Z,101996.39
2018-05-27T19:06:18.584Z,102008.75
2018-05-27T19:08:44.681Z,102009.72
2018-05-27T19:11:10.822Z,102003.94
2018-05-27T19:13:37.308Z,102004.32
2018-05-27T19:16:03.412Z,102011.77
2018-05-27T19:18:29.526Z,102007.16
2018-05-27T19:20:55.654Z,102009.19
2018-05-27T19:23:21.813Z,102007.22
2018-05-27T19:25:47.905Z,102005.19
2018-05-27T19:28:14.257Z,102008.55
2018-05-27T19:30:40.385Z,102002.52
2018-05-27T19:33:06.485Z,102004.55
2018-05-27T19:35:32.605Z,102010.49
2018-05-27T19:37:58.850Z,102007.96
2018-05-27T19:40:24.953Z,102009.03
2018-05-27T19:42:51.041Z,102012.75
2018-05-27T19:45:17.161Z,102008.95
2018-05-27T19:47:43.272Z,102008.28
2018-05-27T19:50:09.398Z,102004.92
2018-05-27T19:52:35.797Z,102012.23
2018-05-27T19:55:01.912Z,102011.09
2018-05-27T19:57:28.045Z,102012.64
2018-05-27T19:59:54.149Z,102017.27
2018-05-27T20:02:20.302Z,102023.78
2018-05-27T20:04:46.403Z,102032.84
2018-05-27T20:07:12.638Z,102032.69
2018-05-27T20:09:38.733Z,102039.62
2018-05-27T20:12:04.844Z,102041.13
2018-05-27T20:14:31.050Z,102047.08
2018-05-27T20:16:57.194Z,102045.52
2018-05-27T20:19:23.300Z,102039.92
2018-05-27T20:21:49.947Z,102043.52
2018-05-27T20:24:16.062Z,102042.27
2018-05-27T20:26:42.172Z,102041.44
2018-05-27T20:29:09.004Z,102042.89
2018-05-27T20:31:35.097Z,102034.73
2018-05-27T20:34:01.206Z,102037.39
2018-05-27T20:36:27.449Z,102041.06
2018-05-27T20:38:53.923Z,102034.96
2018-05-27T20:41:20.022Z,102037.78
2018-05-27T20:43:46.165Z,102032.97
2018-05-27T20:46:12.272Z,102041.06
2018-05-27T20:48:38.421Z,102038.95
2018-05-27T20:51:04.582Z,102041.33
2018-05-27T20:53:30.697Z,102050.75
2018-05-27T20:55:57.110Z,102050.13
2018-05-27T20:58:23.285Z,102040.04
2018-05-27T21:00:49.416Z,102039.27
2018-05-27T21:03:15.664Z,102038.98
2018-05-27T21:05:41.761Z,102031.59
2018-05-27T21:08:08.141Z,102026.34
2018-05-27T21:10:34.784Z,102021.19
2018-05-27T21:13:00.921Z,102019.48
2018-05-27T21:15:27.006Z,102025.78
2018-05-27T21:17:53.157Z,102020.58
2018-05-27T21:20:19.489Z,102010.00
2018-05-27T21:22:45.613Z,102009.95
2018-05-27T21:25:12.191Z,102009.06
2018-05-27T21:27:38.334Z,102007.72
2018-05-27T21:30:04.417Z,102011.27
2018-05-27T21:32:30.562Z,102009.60
2018-05-27T21:34:57.022Z,102010.53
2018-05-27T21:37:23.393Z,102007.94
2018-05-27T21:39:49.722Z,102015.96
2018-05-27T21:42:15.858Z,102019.22
2018-05-27T21:44:41.999Z,102019.33
2018-05-27T21:47:08.155Z,102014.06
2018-05-27T21:49:34.258Z,102012.84
2018-05-27T21:52:00.358Z,102015.16
2018-05-27T21:54:26.492Z,102023.14
2018-05-27T21:56:52.624Z,102028.56
2018-05-27T21:59:18.753Z,102037.91
2018-05-27T22:01:45.165Z,102041.51
2018-05-27T22:04:11.739Z,102032.30
2018-05-27T22:06:37.839Z,102016.07
2018-05-27T22:09:04.949Z,102006.81
2018-05-27T22:11:31.088Z,102006.47
2018-05-27T22:13:57.245Z,102002.88
2018-05-27T22:16:23.351Z,102000.52
2018-05-27T22:18:49.477Z,102009.03
2018-05-27T22:21:15.632Z,101994.97
2018-05-27T22:23:41.716Z,101994.66
2018-05-27T22:26:07.812Z,101984.88
2018-05-27T22:28:33.949Z,101995.56
2018-05-27T22:31:00.046Z,101994.28
2018-05-27T22:33:26.587Z,102009.84
2018-05-27T22:35:52.700Z,102006.39
2018-05-27T22:38:18.814Z,102013.04
2018-05-27T22:40:44.942Z,102010.83
2018-05-27T22:43:11.041Z,102006.84
2018-05-27T22:45:37.174Z,102017.02
2018-05-27T22:48:03.268Z,102009.53
2018-05-27T22:50:29.392Z,102013.13
2018-05-27T22:52:55.489Z,102021.11
2018-05-27T22:55:21.613Z,102022.48
2018-05-27T22:57:47.740Z,102019.44
2018-05-27T23:00:13.979Z,102024.80
2018-05-27T23:02:40.352Z,102014.61
2018-05-27T23:05:06.786Z,102017.31
2018-05-27T23:07:32.943Z,102021.69
2018-05-27T23:09:59.209Z,102015.59
2018-05-27T23:12:25.318Z,102016.94
2018-05-27T23:14:51.429Z,102014.28
2018-05-27T23:17:17.931Z,102011.27
2018-05-27T23:19:44.028Z,102014.44
2018-05-27T23:22:10.122Z,102012.77
2018-05-27T23:24:36.254Z,102018.17
2018-05-27T23:27:02.399Z,102027.02
2018-05-27T23:29:28.648Z,102024.81
2018-05-27T23:31:54.746Z,102016.02
2018-05-27T23:34:20.853Z,102016.50
2018-05-27T23:36:46.981Z,102020.04
2018-05-27T23:39:13.134Z,102017.44
2018-05-27T23:41:39.234Z,102023.20
2018-05-27T23:44:05.337Z,102026.39
2018-05-27T23:46:31.464Z,102028.51
2018-05-27T23:48:57.598Z,102029.00
2018-05-27T23:51:23.999Z,102028.16
2018-05-27T23:53:50.103Z,102019.27
2018-05-27T23:56:16.350Z,102018.87
2018-05-27T23:58:42.463Z,102018.91
